Time;durP1;ratioP1;P1;durP2;ratioP2;P2;SDS_P1;SDS_P2;PMS_P1;PMS_P2;Temp;Humidity;BMP_temperature;BMP_pressure;BME280_temperature;BME280_humidity;BME280_pressure;Samples;Min_cycle;Max_cycle;Signal;HPM_P1;HPM_P2
2021/01/19 00:00:14;;;;;;;8.70;6.40;;;;;;;3.72;100.00;98445.00;5053374;28;20225;-70
2021/01/19 00:02:40;;;;;;;8.07;5.93;;;;;;;3.61;100.00;98445.38;5052997;28;20298;-70
2021/01/19 00:05:07;;;;;;;10.60;5.73;;;;;;;3.53;100.00;98444.06;5052362;28;20202;-69
2021/01/19 00:07:34;;;;;;;8.53;5.53;;;;;;;3.54;100.00;98445.69;5051515;28;20625;-69
2021/01/19 00:10:00;;;;;;;9.47;6.03;;;;;;;3.51;100.00;98440.00;5052701;28;20238;-68
2021/01/19 00:12:28;;;;;;;8.50;5.50;;;;;;;3.65;100.00;98436.31;5063023;28;20288;-69
2021/01/19 00:14:54;;;;;;;8.70;5.60;;;;;;;3.49;100.00;98437.53;5070566;28;20263;-70
2021/01/19 00:17:20;;;;;;;8.23;5.57;;;;;;;3.44;100.00;98434.88;5073094;28;20220;-70
2021/01/19 00:19:46;;;;;;;8.10;5.13;;;;;;;3.57;100.00;98428.78;5072801;28;20296;-71
2021/01/19 00:22:13;;;;;;;7.40;4.77;;;;;;;3.53;100.00;98426.88;5072410;28;20251;-69
2021/01/19 00:24:39;;;;;;;7.93;5.07;;;;;;;3.57;100.00;98427.94;5072191;28;20197;-69
2021/01/19 00:27:05;;;;;;;7.63;4.63;;;;;;;3.49;100.00;98434.00;5072467;28;20769;-70
2021/01/19 00:29:31;;;;;;;6.93;4.87;;;;;;;3.53;100.00;98421.44;5072411;28;20770;-70
2021/01/19 00:31:57;;;;;;;9.80;4.97;;;;;;;3.31;100.00;98418.31;5072210;28;20209;-70
2021/01/19 00:34:23;;;;;;;7.77;5.00;;;;;;;3.39;100.00;98420.44;5070299;28;20295;-70
2021/01/19 00:36:50;;;;;;;5.83;4.20;;;;;;;3.33;100.00;98422.41;5072062;28;20739;-69
2021/01/19 00:39:16;;;;;;;10.17;4.63;;;;;;;3.30;100.00;98422.16;5072318;28;20264;-69
2021/01/19 00:41:43;;;;;;;8.37;4.97;;;;;;;3.31;100.00;98421.03;5072109;28;20617;-68
2021/01/19 00:44:09;;;;;;;7.57;4.67;;;;;;;3.37;100.00;98419.91;5071462;28;20209;-68
2021/01/19 00:46:35;;;;;;;5.97;4.33;;;;;;;3.45;100.00;98424.78;5071982;28;20263;-68
2021/01/19 00:49:04;;;;;;;6.60;4.43;;;;;;;3.47;100.00;98428.84;5072012;28;20224;-68
2021/01/19 00:51:34;;;;;;;9.90;4.50;;;;;;;3.51;100.00;98429.91;5070570;28;20231;-68
2021/01/19 00:54:01;;;;;;;9.33;4.87;;;;;;;3.39;100.00;98426.72;5071524;28;20297;-69
2021/01/19 00:56:38;;;;;;;6.40;4.07;;;;;;;3.36;100.00;98426.47;5071670;28;20776;-69
2021/01/19 00:59:05;;;;;;;4.93;4.00;;;;;;;3.21;100.00;98419.22;5072124;28;20256;-69
2021/01/19 01:34:14;;;;;;;6.80;3.77;;;;;;;3.41;100.00;98413.63;5110391;27;20995;-69
2021/01/19 01:36:41;;;;;;;6.07;4.07;;;;;;;3.61;100.00;98410.69;5111515;28;20203;-69
2021/01/19 01:39:07;;;;;;;8.53;4.40;;;;;;;3.36;100.00;98416.38;5109231;28;20738;-69
2021/01/19 01:41:33;;;;;;;6.80;4.30;;;;;;;3.61;100.00;98421.63;5109091;28;20251;-69
2021/01/19 01:44:02;;;;;;;7.33;4.00;;;;;;;3.33;100.00;98408.75;5108465;28;20561;-69
2021/01/19 01:46:35;;;;;;;7.90;3.90;;;;;;;3.40;100.00;98417.44;5103655;28;20247;-70
2021/01/19 01:49:02;;;;;;;8.10;4.47;;;;;;;3.53;100.00;98411.34;5086965;28;20742;-69
2021/01/19 01:51:33;;;;;;;5.63;3.73;;;;;;;3.34;100.00;98404.94;5086871;28;20303;-69
2021/01/19 01:54:02;;;;;;;6.60;3.83;;;;;;;3.53;100.00;98400.41;5087293;28;20767;-69
2021/01/19 01:56:28;;;;;;;7.10;3.63;;;;;;;3.16;100.00;98400.16;5088904;28;20287;-70
2021/01/19 01:58:55;;;;;;;5.47;3.80;;;;;;;3.41;100.00;98397.25;5087806;28;20260;-68
2021/01/19 02:01:24;;;;;;;6.40;3.50;;;;;;;3.53;100.00;98388.69;5088217;28;20287;-69
2021/01/19 02:03:50;;;;;;;4.73;3.47;;;;;;;3.33;100.00;98392.41;5087375;28;20681;-68
2021/01/19 02:06:16;;;;;;;6.30;3.50;;;;;;;3.16;100.00;98383.78;5088212;28;20737;-69
2021/01/19 02:08:56;;;;;;;4.43;3.10;;;;;;;3.16;100.00;98383.78;5088679;28;20260;-70
2021/01/19 02:11:44;;;;;;;8.13;3.43;;;;;;;3.26;100.00;98383.72;5091578;28;20230;-70
2021/01/19 02:14:31;;;;;;;5.10;3.30;;;;;;;3.20;100.00;98384.84;5107945;28;20311;-70
2021/01/19 02:17:27;;;;;;;6.63;3.40;;;;;;;3.23;100.00;98373.38;5108779;28;20391;-70
2021/01/19 02:20:21;;;;;;;6.57;3.77;;;;;;;3.20;100.00;98357.59;5108614;28;20845;-69
2021/01/19 02:23:04;;;;;;;6.47;3.60;;;;;;;3.31;100.00;98359.13;5108069;28;20343;-69
2021/01/19 02:25:32;;;;;;;5.80;3.20;;;;;;;3.29;100.00;98361.34;5107292;28;20221;-69
2021/01/19 02:28:08;;;;;;;5.83;3.43;;;;;;;3.29;100.00;98355.88;5108540;28;20274;-69
2021/01/19 02:31:19;;;;;;;5.17;3.17;;;;;;;3.35;100.00;98349.28;5108496;28;20249;-68
2021/01/19 02:34:19;;;;;;;4.27;2.90;;;;;;;2.93;100.00;98349.88;5098717;28;20259;-69
2021/01/19 02:37:17;;;;;;;5.50;3.20;;;;;;;2.83;100.00;98347.22;5103966;28;20291;-69
2021/01/19 02:39:53;;;;;;;5.03;3.20;;;;;;;2.95;100.00;98346.88;5107863;28;20227;-69
2021/01/19 02:42:26;;;;;;;4.13;2.87;;;;;;;3.11;100.00;98356.56;5108032;28;20199;-70
2021/01/19 02:44:54;;;;;;;5.13;3.40;;;;;;;3.03;100.00;98346.25;5097822;28;20262;-71
2021/01/19 02:47:21;;;;;;;5.20;3.23;;;;;;;2.96;100.00;98345.75;5094334;28;20285;-69
2021/01/19 02:49:47;;;;;;;5.70;2.97;;;;;;;3.06;100.00;98342.97;5094454;28;20204;-69
2021/01/19 02:52:15;;;;;;;6.57;3.30;;;;;;;2.86;100.00;98356.75;5095691;28;20315;-69
2021/01/19 02:54:43;;;;;;;6.13;3.20;;;;;;;3.02;100.00;98341.91;5099766;28;20272;-69
2021/01/19 02:57:18;;;;;;;5.23;3.17;;;;;;;2.94;100.00;98347.97;5104445;28;20248;-69
2021/01/19 03:00:13;;;;;;;6.67;3.70;;;;;;;2.87;100.00;98347.47;5098073;28;20307;-68
2021/01/19 03:02:51;;;;;;;6.53;2.97;;;;;;;3.01;100.00;98343.81;5094325;28;20214;-69
2021/01/19 03:05:18;;;;;;;5.23;3.37;;;;;;;2.95;100.00;98347.69;5092760;28;20633;-69
2021/01/19 03:07:45;;;;;;;6.43;3.53;;;;;;;2.89;100.00;98342.56;5094167;28;20225;-69
2021/01/19 03:10:13;;;;;;;5.30;3.33;;;;;;;2.89;100.00;98342.56;5094113;28;20204;-69
2021/01/19 03:12:42;;;;;;;6.20;3.30;;;;;;;2.80;100.00;98339.63;5079968;28;20217;-69
2021/01/19 03:15:11;;;;;;;6.00;3.40;;;;;;;2.78;100.00;98333.63;5073804;28;20875;-69
2021/01/19 03:17:39;;;;;;;7.63;3.10;;;;;;;2.77;100.00;98337.44;5073771;28;20343;-68
2021/01/19 03:20:10;;;;;;;5.63;3.33;;;;;;;2.85;100.00;98334.13;5073737;28;20209;-70
2021/01/19 03:22:36;;;;;;;5.63;3.07;;;;;;;2.95;100.00;98328.63;5073624;28;20285;-69
2021/01/19 03:25:03;;;;;;;4.50;3.00;;;;;;;2.67;100.00;98325.78;5085829;28;20205;-68
2021/01/19 03:27:29;;;;;;;5.50;3.53;;;;;;;2.84;100.00;98328.97;5093735;28;20689;-68
2021/01/19 03:29:55;;;;;;;4.27;3.40;;;;;;;2.71;100.00;98321.41;5093901;28;20212;-68
2021/01/19 03:32:21;;;;;;;6.07;3.33;;;;;;;2.60;100.00;98325.28;5093492;28;20228;-70
2021/01/19 03:34:47;;;;;;;6.07;3.70;;;;;;;2.37;100.00;98323.25;5093013;28;20232;-68
2021/01/19 03:37:13;;;;;;;8.20;3.77;;;;;;;2.59;100.00;98324.47;5093611;28;20259;-70
2021/01/19 03:39:39;;;;;;;8.67;3.70;;;;;;;2.77;100.00;98325.75;5094954;28;20256;-69
2021/01/19 03:42:05;;;;;;;6.97;3.57;;;;;;;2.53;100.00;98320.16;5093655;28;20210;-68
2021/01/19 03:44:31;;;;;;;6.67;3.70;;;;;;;2.56;100.00;98322.31;5092346;28;20767;-68
2021/01/19 03:46:57;;;;;;;8.63;3.50;;;;;;;2.50;100.00;98320.72;5093338;28;20250;-69
2021/01/19 03:49:24;;;;;;;6.57;3.70;;;;;;;2.68;100.00;98311.88;5091823;28;20593;-70
2021/01/19 03:51:49;;;;;;;5.47;3.87;;;;;;;2.44;100.00;98319.13;5093392;28;20270;-69
2021/01/19 03:54:19;;;;;;;5.30;3.73;;;;;;;2.51;100.00;98316.91;5091387;28;20235;-68
2021/01/19 03:56:46;;;;;;;9.70;4.40;;;;;;;2.54;100.00;98310.88;5092002;28;20260;-68
2021/01/19 03:59:13;;;;;;;5.83;3.30;;;;;;;2.57;100.00;98306.81;5093192;28;20229;-70
2021/01/19 04:01:40;;;;;;;6.40;3.80;;;;;;;2.42;100.00;98306.88;5093437;28;20291;-69
2021/01/19 04:04:07;;;;;;;6.93;3.83;;;;;;;2.11;100.00;98303.50;5092248;28;20201;-69
2021/01/19 04:06:34;;;;;;;6.97;3.53;;;;;;;2.16;100.00;98308.91;5092884;28;20291;-69
2021/01/19 04:09:00;;;;;;;8.13;4.30;;;;;;;2.33;100.00;98308.56;5091519;28;20231;-69
2021/01/19 04:11:27;;;;;;;6.40;3.73;;;;;;;2.40;100.00;98303.63;5088965;28;20605;-68
2021/01/19 04:13:53;;;;;;;7.97;4.43;;;;;;;2.31;100.00;98300.69;5072031;28;20316;-69
2021/01/19 04:16:20;;;;;;;6.30;4.17;;;;;;;2.29;100.00;98302.88;5071495;28;20244;-68
2021/01/19 04:18:46;;;;;;;7.43;4.00;;;;;;;2.17;100.00;98309.75;5072463;28;20229;-69
2021/01/19 04:21:12;;;;;;;6.27;3.73;;;;;;;2.27;100.00;98305.06;5072437;28;20240;-69
2021/01/19 04:23:39;;;;;;;5.30;4.07;;;;;;;2.11;100.00;98294.50;5072793;28;20201;-69
2021/01/19 04:26:06;;;;;;;9.47;4.67;;;;;;;2.37;100.00;98298.75;5092525;28;20258;-68
2021/01/19 04:28:32;;;;;;;8.33;4.83;;;;;;;2.03;100.00;98299.44;5092344;28;20266;-69
2021/01/19 04:30:58;;;;;;;7.07;4.37;;;;;;;2.00;100.00;98294.56;5092540;28;20248;-68
2021/01/19 04:33:30;;;;;;;12.03;5.10;;;;;;;2.04;100.00;98295.63;5090578;28;20251;-68
2021/01/19 04:35:59;;;;;;;7.83;4.67;;;;;;;1.98;100.00;98301.38;5093659;28;20677;-68
2021/01/19 04:38:25;;;;;;;9.73;4.90;;;;;;;2.06;100.00;98298.09;5097190;28;20229;-68
2021/01/19 04:40:51;;;;;;;7.73;5.10;;;;;;;2.23;100.00;98289.56;5100732;28;20212;-69
2021/01/19 04:43:17;;;;;;;8.40;5.03;;;;;;;2.28;100.00;98292.25;5096439;28;20232;-69
2021/01/19 04:45:46;;;;;;;10.43;5.27;;;;;;;2.03;100.00;98287.75;5093436;28;20291;-69
2021/01/19 04:48:14;;;;;;;10.63;5.33;;;;;;;1.80;100.00;98285.66;5092844;28;20648;-68
2021/01/19 04:50:40;;;;;;;7.60;4.97;;;;;;;2.12;100.00;98293.44;5092935;28;20291;-69
2021/01/19 04:53:13;;;;;;;9.63;4.87;;;;;;;2.20;100.00;98290.13;5091803;28;20343;-69
2021/01/19 04:55:54;;;;;;;9.20;5.53;;;;;;;2.41;100.00;98280.75;5092843;28;20228;-68
2021/01/19 04:58:22;;;;;;;9.37;5.10;;;;;;;2.29;100.00;98283.81;5092454;28;20319;-69
2021/01/19 05:01:17;;;;;;;8.73;5.07;;;;;;;2.36;100.00;98286.22;5091992;28;20205;-68
2021/01/19 05:03:57;;;;;;;8.93;4.57;;;;;;;2.11;100.00;98289.88;5091390;28;20200;-69
2021/01/19 05:06:49;;;;;;;7.87;5.20;;;;;;;2.38;100.00;98279.41;5092130;28;20617;-70
2021/01/19 05:09:21;;;;;;;8.03;5.17;;;;;;;2.39;100.00;98277.50;5081199;28;20264;-70
2021/01/19 05:11:52;;;;;;;8.93;5.00;;;;;;;2.19;100.00;98283.06;5085260;28;20208;-68
2021/01/19 05:14:21;;;;;;;8.43;4.87;;;;;;;2.17;100.00;98277.06;5070942;28;20231;-68
2021/01/19 05:16:48;;;;;;;8.60;5.60;;;;;;;2.15;100.00;98274.63;5071543;28;20292;-68
2021/01/19 05:19:16;;;;;;;7.67;5.43;;;;;;;2.11;100.00;98272.75;5071609;28;20232;-68
2021/01/19 05:21:44;;;;;;;7.83;5.17;;;;;;;2.15;100.00;98274.63;5071699;28;20232;-68
2021/01/19 05:24:10;;;;;;;7.77;5.50;;;;;;;2.12;100.00;98263.50;5076474;28;20204;-70
2021/01/19 05:26:41;;;;;;;10.73;5.90;;;;;;;2.03;100.00;98255.09;5091826;28;20204;-68
2021/01/19 05:29:07;;;;;;;8.43;5.57;;;;;;;2.05;100.00;98250.19;5091982;28;20260;-70
2021/01/19 05:31:34;;;;;;;8.33;5.40;;;;;;;2.18;100.00;98244.13;5091912;28;20294;-69
2021/01/19 05:34:17;;;;;;;8.60;6.03;;;;;;;1.95;100.00;98251.03;5091140;28;20312;-69
2021/01/19 05:36:46;;;;;;;8.30;5.63;;;;;;;1.96;100.00;98251.84;5091724;28;20287;-69
2021/01/19 05:39:20;;;;;;;8.30;5.87;;;;;;;1.81;100.00;98252.72;5094028;28;20270;-69
2021/01/19 05:41:48;;;;;;;11.63;6.90;;;;;;;1.86;100.00;98254.63;5092636;28;20304;-69
2021/01/19 05:44:25;;;;;;;10.27;6.37;;;;;;;1.99;100.00;98254.00;5091984;28;20247;-70
2021/01/19 05:46:59;;;;;;;13.20;6.43;;;;;;;1.98;100.00;98264.09;5091941;28;20704;-69
2021/01/19 05:49:46;;;;;;;11.20;6.23;;;;;;;1.92;100.00;98267.91;5091595;28;20721;-69
2021/01/19 05:52:18;;;;;;;12.47;6.33;;;;;;;1.88;100.00;98261.41;5092082;28;20633;-69
2021/01/19 05:54:46;;;;;;;9.83;6.50;;;;;;;1.86;100.00;98260.88;5091385;28;20200;-70
2021/01/19 05:57:24;;;;;;;10.30;6.80;;;;;;;1.86;100.00;98263.59;5091879;28;20284;-70
2021/01/19 06:00:02;;;;;;;9.77;6.80;;;;;;;2.01;100.00;98251.81;5091863;28;20196;-69
2021/01/19 06:02:41;;;;;;;9.47;6.33;;;;;;;2.12;100.00;98252.59;5092044;28;20231;-70
2021/01/19 06:05:17;;;;;;;12.87;6.97;;;;;;;1.99;100.00;98243.13;5091570;28;20201;-69
2021/01/19 06:07:44;;;;;;;12.83;7.90;;;;;;;1.80;100.00;98250.28;5091476;28;20232;-69
2021/01/19 06:10:13;;;;;;;10.50;6.90;;;;;;;1.83;100.00;98245.09;5091579;28;20299;-70
2021/01/19 06:12:41;;;;;;;11.87;7.50;;;;;;;1.72;100.00;98254.41;5077867;28;20217;-70
2021/01/19 06:15:09;;;;;;;11.13;7.00;;;;;;;1.52;100.00;98253.66;5071392;28;20209;-69
2021/01/19 06:17:36;;;;;;;11.67;7.33;;;;;;;1.74;100.00;98252.22;5071776;28;20271;-69
2021/01/19 06:20:05;;;;;;;11.87;7.07;;;;;;;1.65;100.00;98253.06;5075408;28;20286;-69
2021/01/19 06:22:32;;;;;;;10.40;6.87;;;;;;;1.38;100.00;98245.25;5079758;28;20204;-69
2021/01/19 06:24:59;;;;;;;10.57;6.83;;;;;;;1.54;100.00;98246.84;5089967;28;20240;-70
2021/01/19 06:27:25;;;;;;;10.87;7.37;;;;;;;1.76;100.00;98244.59;5095927;28;20258;-69
2021/01/19 06:30:12;;;;;;;9.87;7.40;;;;;;;1.77;100.00;98235.34;5095543;28;20204;-69
2021/01/19 06:32:49;;;;;;;11.40;7.63;;;;;;;1.85;100.00;98242.94;5094870;28;20736;-69
2021/01/19 06:35:21;;;;;;;11.27;7.40;;;;;;;1.92;100.00;98229.84;5083441;28;20211;-68
2021/01/19 06:37:53;;;;;;;12.17;7.67;;;;;;;1.69;100.00;98226.94;5075754;28;20225;-69
2021/01/19 06:40:21;;;;;;;15.90;8.17;;;;;;;1.66;100.00;98225.59;5074903;28;20231;-71
2021/01/19 06:43:02;;;;;;;15.00;8.20;;;;;;;1.55;100.00;98218.56;5092190;28;20216;-71
2021/01/19 06:45:30;;;;;;;11.90;7.63;;;;;;;1.79;100.00;98211.38;5094211;28;20215;-70
2021/01/19 06:47:58;;;;;;;14.17;8.43;;;;;;;1.51;100.00;98217.50;5094307;28;20721;-69
2021/01/19 06:50:27;;;;;;;11.93;7.93;;;;;;;1.80;100.00;98213.03;5094705;28;20236;-70
2021/01/19 06:53:22;;;;;;;11.27;8.57;;;;;;;1.75;100.00;98204.88;5094003;28;20220;-70
2021/01/19 06:56:09;;;;;;;11.53;7.20;;;;;;;1.82;100.00;98205.41;5093488;28;20212;-69
2021/01/19 06:58:48;;;;;;;16.70;8.40;;;;;;;1.79;100.00;98216.84;5094157;28;20314;-69
2021/01/19 07:01:21;;;;;;;12.67;7.90;;;;;;;2.00;100.00;98204.78;5092460;28;20258;-72
2021/01/19 07:04:01;;;;;;;11.53;7.63;;;;;;;1.80;100.00;98204.06;5092339;28;20295;-72
2021/01/19 07:07:02;;;;;;;12.93;8.00;;;;;;;1.89;100.00;98195.03;5093476;28;20299;-71
2021/01/19 07:09:31;;;;;;;12.47;8.37;;;;;;;1.70;100.00;98204.91;5091739;28;20317;-72
2021/01/19 07:12:05;;;;;;;14.40;8.30;;;;;;;1.84;100.00;98203.19;5092279;28;20289;-71
2021/01/19 07:14:42;;;;;;;10.63;8.07;;;;;;;1.85;100.00;98193.13;5093238;28;20773;-71
2021/01/19 07:17:18;;;;;;;11.33;7.87;;;;;;;1.80;100.00;98194.00;5093320;28;20261;-72
2021/01/19 07:19:47;;;;;;;13.70;8.17;;;;;;;1.90;100.00;98198.53;5093213;28;20224;-72
2021/01/19 07:22:38;;;;;;;14.17;8.33;;;;;;;1.88;100.00;98207.00;5092573;28;20326;-73
2021/01/19 07:25:04;;;;;;;12.07;8.47;;;;;;;1.88;100.00;98206.19;5093402;28;20616;-73
2021/01/19 07:27:31;;;;;;;11.27;8.17;;;;;;;1.88;100.00;98198.03;5095417;28;20287;-73
2021/01/19 07:29:58;;;;;;;14.13;8.70;;;;;;;1.89;100.00;98195.03;5094724;28;20215;-72
2021/01/19 07:32:26;;;;;;;15.30;9.10;;;;;;;1.84;100.00;98203.19;5094098;28;20255;-71
2021/01/19 07:34:53;;;;;;;14.63;8.80;;;;;;;1.89;100.00;98200.47;5093812;28;20209;-72
2021/01/19 07:37:30;;;;;;;13.90;9.03;;;;;;;1.77;100.00;98194.53;5086338;28;20300;-71
2021/01/19 07:39:56;;;;;;;10.83;8.10;;;;;;;1.78;100.00;98188.00;5096776;28;20293;-71
2021/01/19 07:42:23;;;;;;;13.50;8.90;;;;;;;2.06;100.00;98190.03;5096634;28;20232;-72
2021/01/19 07:44:58;;;;;;;15.03;8.93;;;;;;;2.29;100.00;98187.69;5094652;28;20596;-72
2021/01/19 07:47:35;;;;;;;12.27;8.83;;;;;;;2.06;100.00;98167.47;5087340;28;20232;-72
2021/01/19 07:50:17;;;;;;;14.73;8.57;;;;;;;2.14;100.00;98174.19;5092383;28;20231;-71
2021/01/19 07:52:46;;;;;;;13.10;8.97;;;;;;;2.05;100.00;98172.06;5092196;28;20232;-72
2021/01/19 07:55:21;;;;;;;12.20;8.20;;;;;;;2.31;100.00;98175.44;5094281;28;20281;-73
2021/01/19 07:57:49;;;;;;;14.27;8.43;;;;;;;2.14;100.00;98160.56;5095043;28;20231;-73
2021/01/19 08:00:24;;;;;;;13.97;8.47;;;;;;;2.00;100.00;98158.50;5101458;28;20219;-72
2021/01/19 08:03:06;;;;;;;14.40;8.57;;;;;;;2.24;100.00;98157.81;5103366;28;20226;-73
2021/01/19 08:05:33;;;;;;;10.80;7.80;;;;;;;2.51;100.00;98155.41;5101193;28;20227;-73
2021/01/19 08:08:00;;;;;;;10.73;7.67;;;;;;;2.12;100.00;98162.78;5102779;28;20311;-72
2021/01/19 08:10:33;;;;;;;13.77;7.70;;;;;;;2.33;100.00;98162.38;5096967;28;20558;-72
2021/01/19 08:13:00;;;;;;;12.37;7.17;;;;;;;2.48;100.00;98153.25;5092173;28;20216;-72
2021/01/19 08:15:28;;;;;;;9.93;7.00;;;;;;;2.21;100.00;98150.22;5093741;28;20200;-72
2021/01/19 08:17:55;;;;;;;13.30;7.63;;;;;;;2.85;100.00;98153.47;5093255;28;20229;-70
2021/01/19 08:20:27;;;;;;;14.90;7.73;;;;;;;2.64;100.00;98149.31;5093627;28;20204;-71
2021/01/19 08:22:55;;;;;;;11.53;7.30;;;;;;;2.96;100.00;98144.09;5092268;28;20803;-70
2021/01/19 08:25:23;;;;;;;13.83;7.67;;;;;;;2.89;100.00;98141.72;5092455;28;20250;-72
2021/01/19 08:27:49;;;;;;;10.10;7.63;;;;;;;2.91;100.00;98135.97;5090395;28;20220;-72
2021/01/19 08:30:23;;;;;;;9.53;7.07;;;;;;;2.56;100.00;98141.75;5091592;28;20244;-73
2021/01/19 08:32:50;;;;;;;12.07;7.40;;;;;;;2.65;100.00;98137.28;5087238;28;20232;-72
2021/01/19 08:35:17;;;;;;;12.17;7.13;;;;;;;3.10;100.00;98125.97;5090998;28;20208;-72
2021/01/19 08:37:53;;;;;;;10.83;7.40;;;;;;;3.18;100.00;98128.03;5071283;28;20229;-72
2021/01/19 08:40:28;;;;;;;11.10;6.80;;;;;;;3.57;100.00;98127.84;5085928;28;20712;-73
2021/01/19 08:42:55;;;;;;;10.23;7.20;;;;;;;3.55;100.00;98124.59;5090358;28;20197;-72
2021/01/19 08:45:27;;;;;;;10.30;7.30;;;;;;;3.52;100.00;98114.28;5091313;28;20686;-72
2021/01/19 08:47:59;;;;;;;10.43;7.33;;;;;;;3.76;100.00;98113.13;5091538;28;20220;-73
2021/01/19 08:50:27;;;;;;;11.83;7.47;;;;;;;3.83;100.00;98113.56;5091309;28;20204;-72
2021/01/19 08:52:54;;;;;;;9.97;6.93;;;;;;;3.89;100.00;98106.94;5090172;28;20713;-73
2021/01/19 08:55:25;;;;;;;14.53;8.30;;;;;;;3.92;100.00;98109.06;5091312;28;20742;-73
2021/01/19 08:57:55;;;;;;;9.83;7.00;;;;;;;3.84;100.00;98107.00;5091472;28;20235;-71
2021/01/19 09:00:27;;;;;;;13.37;7.70;;;;;;;3.45;100.00;98108.38;5090435;28;20546;-71
2021/01/19 09:02:54;;;;;;;16.07;7.80;;;;;;;3.48;100.00;98105.06;5090154;28;20212;-72
2021/01/19 09:05:25;;;;;;;11.80;8.00;;;;;;;3.08;100.00;98098.19;5088422;28;20685;-72
2021/01/19 09:07:51;;;;;;;12.70;7.33;;;;;;;3.25;100.00;98095.78;5089111;28;20755;-70
2021/01/19 09:10:28;;;;;;;13.00;8.40;;;;;;;3.27;100.00;98093.56;5090418;28;20730;-71
2021/01/19 09:12:55;;;;;;;12.83;8.20;;;;;;;3.56;100.00;98099.75;5073682;28;20706;-72
2021/01/19 09:15:23;;;;;;;13.17;7.83;;;;;;;3.88;100.00;98090.84;5070320;28;20201;-72
2021/01/19 09:17:57;;;;;;;9.80;7.60;;;;;;;3.24;100.00;98096.91;5069704;28;20225;-71
2021/01/19 09:20:26;;;;;;;12.37;8.00;;;;;;;3.40;100.00;98101.06;5074594;28;20614;-71
2021/01/19 09:22:53;;;;;;;10.43;7.37;;;;;;;3.25;100.00;98086.81;5071196;28;20254;-72
2021/01/19 09:25:22;;;;;;;14.00;7.90;;;;;;;3.34;100.00;98083.13;5085917;28;20204;-72
2021/01/19 09:27:49;;;;;;;15.23;8.27;;;;;;;3.47;100.00;98079.69;5091107;28;20259;-72
2021/01/19 09:30:18;;;;;;;12.23;7.90;;;;;;;3.40;100.00;98083.88;5089319;28;20281;-71
2021/01/19 09:32:46;;;;;;;12.20;8.03;;;;;;;3.12;100.00;98076.59;5088195;28;20250;-71
2021/01/19 09:35:14;;;;;;;11.77;7.87;;;;;;;3.31;100.00;98075.53;5070958;28;20216;-71
2021/01/19 09:37:41;;;;;;;11.97;7.90;;;;;;;3.36;100.00;98078.19;5071282;28;20240;-71
2021/01/19 09:40:11;;;;;;;14.37;8.50;;;;;;;3.39;100.00;98072.16;5090337;28;20216;-71
2021/01/19 09:42:39;;;;;;;11.87;8.17;;;;;;;3.18;100.00;98073.50;5093153;28;20236;-72
2021/01/19 09:45:10;;;;;;;11.77;8.17;;;;;;;3.46;100.00;98060.88;5094932;28;20706;-72
2021/01/19 09:47:39;;;;;;;11.63;7.97;;;;;;;3.48;100.00;98058.69;5094719;28;20258;-72
2021/01/19 09:50:08;;;;;;;10.60;7.50;;;;;;;3.83;100.00;98050.78;5091135;28;20232;-72
2021/01/19 09:52:35;;;;;;;15.70;8.53;;;;;;;4.32;100.00;98052.19;5090158;28;20208;-72
2021/01/19 09:55:09;;;;;;;11.23;8.50;;;;;;;4.49;100.00;98036.06;5091969;28;20247;-72
2021/01/19 09:57:36;;;;;;;11.17;7.57;;;;;;;4.56;100.00;98023.59;5094643;28;20200;-72
2021/01/19 10:00:08;;;;;;;11.93;8.87;;;;;;;4.74;100.00;98011.00;5094266;28;20204;-72
2021/01/19 10:02:34;;;;;;;12.77;8.87;;;;;;;3.84;100.00;98014.22;5094140;28;20208;-72
2021/01/19 10:05:07;;;;;;;13.17;9.03;;;;;;;4.24;100.00;97995.53;5094107;28;20231;-72
2021/01/19 10:07:34;;;;;;;10.93;8.43;;;;;;;4.02;100.00;97998.91;5094541;28;20732;-71
2021/01/19 10:10:08;;;;;;;12.47;8.20;;;;;;;4.41;100.00;97995.78;5094413;28;20299;-72
2021/01/19 10:12:35;;;;;;;11.47;8.40;;;;;;;4.62;100.00;97991.53;5093865;28;20200;-71
2021/01/19 10:15:01;;;;;;;13.93;8.60;;;;;;;3.74;100.00;97984.34;5093550;28;20654;-71
2021/01/19 10:17:30;;;;;;;13.37;8.70;;;;;;;3.68;100.00;97982.81;5093997;28;20223;-70
2021/01/19 10:20:06;;;;;;;14.60;8.83;;;;;;;4.11;100.00;97967.91;5094475;28;20734;-70
2021/01/19 10:22:32;;;;;;;13.83;8.33;;;;;;;4.55;100.00;97975.56;5094081;28;20233;-71
2021/01/19 10:24:58;;;;;;;11.23;8.73;;;;;;;4.44;100.00;97965.09;5093758;28;20386;-72
2021/01/19 10:27:24;;;;;;;10.93;8.20;;;;;;;4.43;100.00;97958.03;5093184;28;20311;-72
2021/01/19 10:29:53;;;;;;;12.30;8.57;;;;;;;4.26;100.00;97950.44;5094180;28;20205;-72
2021/01/19 10:32:20;;;;;;;13.23;9.17;;;;;;;4.36;100.00;97950.22;5092778;28;20265;-69
2021/01/19 10:34:48;;;;;;;13.00;8.83;;;;;;;4.50;100.00;97931.94;5093107;28;20232;-69
2021/01/19 10:37:15;;;;;;;17.13;9.40;;;;;;;4.68;100.00;97930.22;5094120;28;20322;-70
2021/01/19 10:39:48;;;;;;;11.60;8.67;;;;;;;4.53;100.00;97938.69;5093837;28;20224;-68
2021/01/19 10:42:43;;;;;;;11.70;8.27;;;;;;;4.53;100.00;97936.78;5092440;28;20741;-72
2021/01/19 10:45:09;;;;;;;10.33;8.33;;;;;;;4.70;100.00;97930.72;5081851;28;20242;-72
2021/01/19 10:47:43;;;;;;;11.33;8.00;;;;;;;4.83;100.00;97921.69;5092746;28;20209;-71
2021/01/19 10:50:16;;;;;;;10.97;8.23;;;;;;;4.87;100.00;97907.09;5093003;28;20295;-72
2021/01/19 10:52:55;;;;;;;13.23;8.50;;;;;;;5.34;100.00;97900.31;5092954;28;20295;-71
2021/01/19 10:55:22;;;;;;;11.57;7.87;;;;;;;5.72;100.00;97893.38;5092645;28;20240;-70
2021/01/19 10:57:51;;;;;;;12.33;7.93;;;;;;;5.99;100.00;97884.22;5092998;28;20232;-71
2021/01/19 11:00:17;;;;;;;11.70;7.77;;;;;;;5.94;100.00;97887.91;5093575;28;20236;-72
2021/01/19 11:02:43;;;;;;;10.47;7.90;;;;;;;5.71;100.00;97869.03;5090555;28;20201;-72
2021/01/19 11:05:13;;;;;;;11.97;7.77;;;;;;;5.02;100.00;97871.22;5089982;28;20197;-73
2021/01/19 11:07:47;;;;;;;10.50;8.10;;;;;;;5.28;100.00;97871.44;5073249;28;20329;-72
2021/01/19 11:10:16;;;;;;;10.57;7.43;;;;;;;5.01;100.00;97857.88;5073284;28;20677;-73
2021/01/19 11:12:42;;;;;;;10.13;7.70;;;;;;;4.92;100.00;97854.25;5086601;28;20200;-73
2021/01/19 11:15:10;;;;;;;14.07;7.40;;;;;;;5.27;100.00;97845.22;5093332;28;20236;-74
2021/01/19 11:17:37;;;;;;;12.87;7.80;;;;;;;5.12;100.00;97845.59;5093184;28;20349;-74
2021/01/19 11:20:11;;;;;;;9.43;6.83;;;;;;;5.19;100.00;97848.69;5093371;28;20692;-74
2021/01/19 11:22:44;;;;;;;12.43;7.73;;;;;;;4.82;100.00;97844.34;5096404;28;20281;-74
2021/01/19 11:25:11;;;;;;;15.27;7.80;;;;;;;4.91;100.00;97826.09;5085320;28;20730;-75
2021/01/19 11:27:38;;;;;;;11.27;7.37;;;;;;;4.95;100.00;97827.09;5077875;28;20209;-73
2021/01/19 11:30:05;;;;;;;11.33;7.43;;;;;;;4.73;100.00;97823.50;5073083;28;20200;-73
2021/01/19 11:32:31;;;;;;;13.53;7.17;;;;;;;5.00;100.00;97820.69;5092303;28;20217;-73
2021/01/19 11:35:00;;;;;;;9.70;7.33;;;;;;;5.17;100.00;97807.16;5092022;28;20229;-74
2021/01/19 11:37:26;;;;;;;10.07;6.93;;;;;;;4.90;100.00;97810.81;5091339;28;20211;-72
2021/01/19 11:39:53;;;;;;;8.83;6.87;;;;;;;5.02;100.00;97794.66;5092650;28;20273;-73
2021/01/19 11:42:19;;;;;;;11.13;7.37;;;;;;;4.98;100.00;97784.69;5092031;28;20681;-73
2021/01/19 11:44:46;;;;;;;10.63;7.27;;;;;;;5.26;100.00;97788.91;5091820;28;20204;-74
2021/01/19 11:47:15;;;;;;;15.77;7.20;;;;;;;5.00;100.00;97785.16;5092323;28;20670;-72
2021/01/19 11:49:48;;;;;;;9.47;6.77;;;;;;;4.78;100.00;97774.22;5092176;28;20256;-72
2021/01/19 11:52:21;;;;;;;9.53;7.10;;;;;;;4.69;100.00;97773.34;5091589;28;20213;-74
2021/01/19 11:54:47;;;;;;;13.90;7.30;;;;;;;4.80;100.00;97761.84;5091941;28;20252;-74
2021/01/19 11:57:14;;;;;;;11.13;7.30;;;;;;;4.45;100.00;97773.59;5092651;28;20232;-73
2021/01/19 11:59:40;;;;;;;11.73;7.03;;;;;;;4.26;100.00;97769.38;5094195;28;20673;-74
2021/01/19 12:02:06;;;;;;;13.47;7.37;;;;;;;4.48;100.00;97761.25;5091349;28;20204;-74
2021/01/19 12:04:33;;;;;;;11.10;6.83;;;;;;;4.51;100.00;97766.91;5090536;28;20208;-74
2021/01/19 12:07:02;;;;;;;9.43;6.90;;;;;;;4.85;100.00;97758.97;5092264;28;20201;-74
2021/01/19 12:09:28;;;;;;;9.30;6.97;;;;;;;4.56;100.00;97757.78;5092189;28;20315;-72
2021/01/19 12:11:54;;;;;;;9.00;6.97;;;;;;;4.29;100.00;97749.66;5091251;28;20646;-73
2021/01/19 12:14:24;;;;;;;9.03;6.37;;;;;;;4.48;100.00;97750.31;5092829;28;20646;-73
2021/01/19 12:16:55;;;;;;;12.43;7.27;;;;;;;4.22;100.00;97735.59;5094449;28;20662;-72